sensor_id;sensor_type;location;lat;lon;timestamp;P1;durP1;ratioP1;P2;durP2;ratioP2
10904;SDS011;5505;51.450;9.254;2023-05-07T00:02:34;14.40;;;12.90;;
10904;SDS011;5505;51.450;9.254;2023-05-07T00:05:22;15.77;;;13.43;;
10904;SDS011;5505;51.450;9.254;2023-05-07T00:08:09;14.13;;;12.77;;
10904;SDS011;5505;51.450;9.254;2023-05-07T00:10:56;15.00;;;13.50;;
10904;SDS011;5505;51.450;9.254;2023-05-07T00:13:43;14.67;;;13.13;;
10904;SDS011;5505;51.450;9.254;2023-05-07T00:16:29;14.67;;;13.17;;
10904;SDS011;5505;51.450;9.254;2023-05-07T00:19:17;16.30;;;13.73;;
10904;SDS011;5505;51.450;9.254;2023-05-07T00:22:04;15.27;;;13.63;;
10904;SDS011;5505;51.450;9.254;2023-05-07T00:24:51;16.03;;;14.43;;
10904;SDS011;5505;51.450;9.254;2023-05-07T00:27:38;14.53;;;13.03;;
10904;SDS011;5505;51.450;9.254;2023-05-07T00:30:25;14.57;;;13.00;;
10904;SDS011;5505;51.450;9.254;2023-05-07T00:33:11;15.27;;;13.67;;
10904;SDS011;5505;51.450;9.254;2023-05-07T00:35:59;14.20;;;12.80;;
10904;SDS011;5505;51.450;9.254;2023-05-07T00:38:47;15.67;;;13.90;;
10904;SDS011;5505;51.450;9.254;2023-05-07T00:41:33;16.07;;;14.33;;
10904;SDS011;5505;51.450;9.254;2023-05-07T00:44:20;19.00;;;13.37;;
10904;SDS011;5505;51.450;9.254;2023-05-07T00:47:07;15.33;;;13.83;;
10904;SDS011;5505;51.450;9.254;2023-05-07T00:49:54;16.80;;;15.10;;
10904;SDS011;5505;51.450;9.254;2023-05-07T00:52:42;16.37;;;14.53;;
10904;SDS011;5505;51.450;9.254;2023-05-07T00:55:29;16.53;;;14.93;;
10904;SDS011;5505;51.450;9.254;2023-05-07T00:58:16;15.20;;;13.70;;
10904;SDS011;5505;51.450;9.254;2023-05-07T01:01:03;16.13;;;14.60;;
10904;SDS011;5505;51.450;9.254;2023-05-07T01:03:49;16.37;;;14.67;;
10904;SDS011;5505;51.450;9.254;2023-05-07T01:06:36;16.10;;;14.53;;
10904;SDS011;5505;51.450;9.254;2023-05-07T01:09:25;16.43;;;14.60;;
10904;SDS011;5505;51.450;9.254;2023-05-07T01:12:13;16.27;;;14.67;;
10904;SDS011;5505;51.450;9.254;2023-05-07T01:14:59;17.37;;;15.50;;
10904;SDS011;5505;51.450;9.254;2023-05-07T01:17:47;17.80;;;14.67;;
10904;SDS011;5505;51.450;9.254;2023-05-07T01:20:34;17.10;;;15.33;;
10904;SDS011;5505;51.450;9.254;2023-05-07T01:23:22;17.30;;;15.60;;
10904;SDS011;5505;51.450;9.254;2023-05-07T01:26:09;17.77;;;15.93;;
10904;SDS011;5505;51.450;9.254;2023-05-07T01:28:56;17.73;;;15.97;;
10904;SDS011;5505;51.450;9.254;2023-05-07T01:31:43;19.07;;;17.10;;
10904;SDS011;5505;51.450;9.254;2023-05-07T01:34:31;19.70;;;17.63;;
10904;SDS011;5505;51.450;9.254;2023-05-07T01:37:20;20.37;;;18.07;;
10904;SDS011;5505;51.450;9.254;2023-05-07T01:40:09;20.67;;;18.57;;
10904;SDS011;5505;51.450;9.254;2023-05-07T01:42:56;20.97;;;18.73;;
10904;SDS011;5505;51.450;9.254;2023-05-07T01:45:43;23.53;;;19.80;;
10904;SDS011;5505;51.450;9.254;2023-05-07T01:48:32;22.77;;;18.43;;
10904;SDS011;5505;51.450;9.254;2023-05-07T01:51:19;21.57;;;18.73;;
10904;SDS011;5505;51.450;9.254;2023-05-07T01:54:07;22.70;;;20.40;;
10904;SDS011;5505;51.450;9.254;2023-05-07T01:59:43;23.63;;;19.87;;
10904;SDS011;5505;51.450;9.254;2023-05-07T02:02:30;21.50;;;19.17;;
10904;SDS011;5505;51.450;9.254;2023-05-07T02:05:17;21.87;;;19.50;;
10904;SDS011;5505;51.450;9.254;2023-05-07T02:08:04;24.53;;;18.57;;
10904;SDS011;5505;51.450;9.254;2023-05-07T02:10:50;26.47;;;21.00;;
10904;SDS011;5505;51.450;9.254;2023-05-07T02:13:40;24.63;;;21.83;;
10904;SDS011;5505;51.450;9.254;2023-05-07T02:16:27;27.27;;;21.67;;
10904;SDS011;5505;51.450;9.254;2023-05-07T02:19:14;24.43;;;20.83;;
10904;SDS011;5505;51.450;9.254;2023-05-07T02:22:01;26.67;;;21.80;;
10904;SDS011;5505;51.450;9.254;2023-05-07T02:24:47;25.10;;;21.03;;
10904;SDS011;5505;51.450;9.254;2023-05-07T02:27:34;25.47;;;21.27;;
10904;SDS011;5505;51.450;9.254;2023-05-07T02:30:22;23.70;;;21.10;;
10904;SDS011;5505;51.450;9.254;2023-05-07T02:33:11;22.80;;;20.50;;
10904;SDS011;5505;51.450;9.254;2023-05-07T02:36:05;23.27;;;20.73;;
10904;SDS011;5505;51.450;9.254;2023-05-07T02:38:53;24.50;;;21.20;;
10904;SDS011;5505;51.450;9.254;2023-05-07T02:41:40;25.57;;;22.17;;
10904;SDS011;5505;51.450;9.254;2023-05-07T02:44:27;25.87;;;21.83;;
10904;SDS011;5505;51.450;9.254;2023-05-07T02:47:17;24.90;;;21.33;;
10904;SDS011;5505;51.450;9.254;2023-05-07T02:50:05;24.90;;;21.60;;
10904;SDS011;5505;51.450;9.254;2023-05-07T02:52:53;30.00;;;22.00;;
10904;SDS011;5505;51.450;9.254;2023-05-07T02:55:40;24.13;;;20.93;;
10904;SDS011;5505;51.450;9.254;2023-05-07T02:58:26;25.53;;;22.77;;
10904;SDS011;5505;51.450;9.254;2023-05-07T03:01:14;26.33;;;21.93;;
10904;SDS011;5505;51.450;9.254;2023-05-07T03:04:02;27.20;;;22.40;;
10904;SDS011;5505;51.450;9.254;2023-05-07T03:06:48;26.53;;;22.53;;
10904;SDS011;5505;51.450;9.254;2023-05-07T03:09:35;25.77;;;22.53;;
10904;SDS011;5505;51.450;9.254;2023-05-07T03:12:22;28.43;;;23.20;;
10904;SDS011;5505;51.450;9.254;2023-05-07T03:15:09;27.07;;;21.93;;
10904;SDS011;5505;51.450;9.254;2023-05-07T03:17:57;26.90;;;23.93;;
10904;SDS011;5505;51.450;9.254;2023-05-07T03:20:45;29.17;;;23.10;;
10904;SDS011;5505;51.450;9.254;2023-05-07T03:23:32;26.20;;;21.80;;
10904;SDS011;5505;51.450;9.254;2023-05-07T03:26:19;27.37;;;21.90;;
10904;SDS011;5505;51.450;9.254;2023-05-07T03:29:06;26.37;;;21.20;;
10904;SDS011;5505;51.450;9.254;2023-05-07T03:31:53;25.87;;;21.70;;
10904;SDS011;5505;51.450;9.254;2023-05-07T03:34:39;28.00;;;22.90;;
10904;SDS011;5505;51.450;9.254;2023-05-07T03:37:27;28.03;;;23.17;;
10904;SDS011;5505;51.450;9.254;2023-05-07T03:40:14;27.20;;;22.03;;
10904;SDS011;5505;51.450;9.254;2023-05-07T03:43:01;29.03;;;22.53;;
10904;SDS011;5505;51.450;9.254;2023-05-07T03:45:48;30.67;;;22.20;;
10904;SDS011;5505;51.450;9.254;2023-05-07T03:48:35;29.40;;;22.53;;
10904;SDS011;5505;51.450;9.254;2023-05-07T03:51:22;24.60;;;21.07;;
10904;SDS011;5505;51.450;9.254;2023-05-07T03:54:10;27.17;;;22.73;;
10904;SDS011;5505;51.450;9.254;2023-05-07T03:56:57;27.70;;;21.77;;
10904;SDS011;5505;51.450;9.254;2023-05-07T03:59:43;29.30;;;22.73;;
10904;SDS011;5505;51.450;9.254;2023-05-07T04:02:30;26.23;;;20.80;;
10904;SDS011;5505;51.450;9.254;2023-05-07T04:05:17;26.07;;;20.93;;
10904;SDS011;5505;51.450;9.254;2023-05-07T04:08:04;25.77;;;21.13;;
10904;SDS011;5505;51.450;9.254;2023-05-07T04:10:55;28.77;;;18.87;;
10904;SDS011;5505;51.450;9.254;2023-05-07T04:13:42;28.17;;;22.13;;
10904;SDS011;5505;51.450;9.254;2023-05-07T04:16:29;27.90;;;21.43;;
10904;SDS011;5505;51.450;9.254;2023-05-07T04:19:15;27.47;;;22.30;;
10904;SDS011;5505;51.450;9.254;2023-05-07T04:22:02;27.07;;;20.30;;
10904;SDS011;5505;51.450;9.254;2023-05-07T04:24:49;26.17;;;21.83;;
10904;SDS011;5505;51.450;9.254;2023-05-07T04:27:38;24.80;;;18.83;;
10904;SDS011;5505;51.450;9.254;2023-05-07T04:30:24;25.80;;;21.17;;
10904;SDS011;5505;51.450;9.254;2023-05-07T04:33:11;25.73;;;19.47;;
10904;SDS011;5505;51.450;9.254;2023-05-07T04:36:00;24.63;;;21.93;;
10904;SDS011;5505;51.450;9.254;2023-05-07T04:38:48;26.30;;;19.47;;
10904;SDS011;5505;51.450;9.254;2023-05-07T04:41:35;26.27;;;20.27;;
10904;SDS011;5505;51.450;9.254;2023-05-07T04:44:23;25.83;;;19.90;;
10904;SDS011;5505;51.450;9.254;2023-05-07T04:47:10;24.37;;;20.57;;
10904;SDS011;5505;51.450;9.254;2023-05-07T04:49:57;23.17;;;18.90;;
10904;SDS011;5505;51.450;9.254;2023-05-07T04:52:44;22.87;;;19.50;;
10904;SDS011;5505;51.450;9.254;2023-05-07T04:55:31;25.20;;;19.87;;
10904;SDS011;5505;51.450;9.254;2023-05-07T04:58:18;22.73;;;18.60;;
10904;SDS011;5505;51.450;9.254;2023-05-07T05:01:06;23.60;;;17.70;;
10904;SDS011;5505;51.450;9.254;2023-05-07T05:03:53;22.37;;;17.97;;
10904;SDS011;5505;51.450;9.254;2023-05-07T05:06:39;21.90;;;18.00;;
10904;SDS011;5505;51.450;9.254;2023-05-07T05:09:26;21.87;;;19.07;;
10904;SDS011;5505;51.450;9.254;2023-05-07T05:12:13;22.87;;;18.10;;
10904;SDS011;5505;51.450;9.254;2023-05-07T05:15:00;20.20;;;17.77;;
10904;SDS011;5505;51.450;9.254;2023-05-07T05:17:48;19.33;;;16.67;;
10904;SDS011;5505;51.450;9.254;2023-05-07T05:20:35;20.90;;;17.20;;
10904;SDS011;5505;51.450;9.254;2023-05-07T05:23:22;20.00;;;17.63;;
10904;SDS011;5505;51.450;9.254;2023-05-07T05:26:08;19.57;;;16.80;;
10904;SDS011;5505;51.450;9.254;2023-05-07T05:28:55;19.80;;;15.93;;
10904;SDS011;5505;51.450;9.254;2023-05-07T05:31:42;18.30;;;15.60;;
10904;SDS011;5505;51.450;9.254;2023-05-07T05:34:30;22.07;;;16.87;;
10904;SDS011;5505;51.450;9.254;2023-05-07T05:37:18;18.80;;;16.40;;
10904;SDS011;5505;51.450;9.254;2023-05-07T05:40:05;17.63;;;15.70;;
10904;SDS011;5505;51.450;9.254;2023-05-07T05:42:52;18.23;;;15.73;;
10904;SDS011;5505;51.450;9.254;2023-05-07T05:45:39;17.30;;;14.77;;
10904;SDS011;5505;51.450;9.254;2023-05-07T05:48:26;16.87;;;14.37;;
10904;SDS011;5505;51.450;9.254;2023-05-07T05:51:14;18.60;;;14.67;;
10904;SDS011;5505;51.450;9.254;2023-05-07T05:54:01;16.90;;;14.77;;
10904;SDS011;5505;51.450;9.254;2023-05-07T05:56:47;18.07;;;14.63;;
10904;SDS011;5505;51.450;9.254;2023-05-07T05:59:35;15.43;;;13.17;;
10904;SDS011;5505;51.450;9.254;2023-05-07T06:02:22;18.27;;;14.27;;
10904;SDS011;5505;51.450;9.254;2023-05-07T06:05:08;16.77;;;13.50;;
10904;SDS011;5505;51.450;9.254;2023-05-07T06:07:56;16.80;;;14.27;;
10904;SDS011;5505;51.450;9.254;2023-05-07T06:10:43;16.47;;;13.00;;
10904;SDS011;5505;51.450;9.254;2023-05-07T06:13:30;15.77;;;12.90;;
10904;SDS011;5505;51.450;9.254;2023-05-07T06:16:17;16.70;;;12.57;;
10904;SDS011;5505;51.450;9.254;2023-05-07T06:19:04;15.10;;;13.53;;
10904;SDS011;5505;51.450;9.254;2023-05-07T06:21:51;15.27;;;12.80;;
10904;SDS011;5505;51.450;9.254;2023-05-07T06:24:39;13.97;;;12.30;;
10904;SDS011;5505;51.450;9.254;2023-05-07T06:27:26;14.40;;;12.03;;
10904;SDS011;5505;51.450;9.254;2023-05-07T06:30:13;13.67;;;12.10;;
10904;SDS011;5505;51.450;9.254;2023-05-07T06:33:00;13.53;;;11.43;;
10904;SDS011;5505;51.450;9.254;2023-05-07T06:35:47;12.63;;;10.90;;
10904;SDS011;5505;51.450;9.254;2023-05-07T06:38:33;15.50;;;11.17;;
10904;SDS011;5505;51.450;9.254;2023-05-07T06:41:21;13.53;;;11.60;;
10904;SDS011;5505;51.450;9.254;2023-05-07T06:44:08;12.30;;;10.80;;
10904;SDS011;5505;51.450;9.254;2023-05-07T06:46:55;13.13;;;10.93;;
10904;SDS011;5505;51.450;9.254;2023-05-07T06:49:42;12.50;;;10.13;;
10904;SDS011;5505;51.450;9.254;2023-05-07T06:52:32;11.30;;;10.07;;
10904;SDS011;5505;51.450;9.254;2023-05-07T06:55:19;13.23;;;11.10;;
10904;SDS011;5505;51.450;9.254;2023-05-07T06:58:07;13.47;;;11.30;;
10904;SDS011;5505;51.450;9.254;2023-05-07T07:00:54;12.23;;;10.77;;
10904;SDS011;5505;51.450;9.254;2023-05-07T07:03:41;11.67;;;10.47;;
10904;SDS011;5505;51.450;9.254;2023-05-07T07:06:28;13.10;;;11.70;;
10904;SDS011;5505;51.450;9.254;2023-05-07T07:09:16;12.10;;;10.57;;
10904;SDS011;5505;51.450;9.254;2023-05-07T07:12:03;14.60;;;11.73;;
10904;SDS011;5505;51.450;9.254;2023-05-07T07:14:51;13.27;;;11.57;;
10904;SDS011;5505;51.450;9.254;2023-05-07T07:17:38;12.20;;;10.90;;
10904;SDS011;5505;51.450;9.254;2023-05-07T07:20:25;11.63;;;10.43;;
10904;SDS011;5505;51.450;9.254;2023-05-07T07:23:11;14.73;;;11.60;;
10904;SDS011;5505;51.450;9.254;2023-05-07T07:25:58;12.20;;;10.90;;
10904;SDS011;5505;51.450;9.254;2023-05-07T07:28:45;13.13;;;11.67;;
10904;SDS011;5505;51.450;9.254;2023-05-07T07:31:33;11.87;;;10.33;;
10904;SDS011;5505;51.450;9.254;2023-05-07T07:34:20;12.53;;;10.80;;
10904;SDS011;5505;51.450;9.254;2023-05-07T07:37:07;12.10;;;10.80;;
10904;SDS011;5505;51.450;9.254;2023-05-07T07:39:54;12.83;;;10.27;;
10904;SDS011;5505;51.450;9.254;2023-05-07T07:42:41;11.00;;;9.80;;
10904;SDS011;5505;51.450;9.254;2023-05-07T07:45:28;12.57;;;10.43;;
10904;SDS011;5505;51.450;9.254;2023-05-07T07:48:16;11.17;;;10.07;;
10904;SDS011;5505;51.450;9.254;2023-05-07T07:51:03;12.30;;;9.77;;
10904;SDS011;5505;51.450;9.254;2023-05-07T07:53:50;11.83;;;10.13;;
10904;SDS011;5505;51.450;9.254;2023-05-07T07:56:37;12.57;;;9.63;;
10904;SDS011;5505;51.450;9.254;2023-05-07T07:59:24;12.07;;;9.97;;
10904;SDS011;5505;51.450;9.254;2023-05-07T08:02:11;11.17;;;9.90;;
10904;SDS011;5505;51.450;9.254;2023-05-07T08:04:59;11.17;;;9.97;;
10904;SDS011;5505;51.450;9.254;2023-05-07T08:07:47;10.97;;;9.60;;
10904;SDS011;5505;51.450;9.254;2023-05-07T08:10:36;11.60;;;9.90;;
10904;SDS011;5505;51.450;9.254;2023-05-07T08:13:24;11.13;;;9.67;;
10904;SDS011;5505;51.450;9.254;2023-05-07T08:16:11;10.23;;;9.17;;
10904;SDS011;5505;51.450;9.254;2023-05-07T08:18:58;15.00;;;9.53;;
10904;SDS011;5505;51.450;9.254;2023-05-07T08:21:46;11.73;;;10.17;;
10904;SDS011;5505;51.450;9.254;2023-05-07T08:24:33;11.00;;;9.90;;
10904;SDS011;5505;51.450;9.254;2023-05-07T08:27:20;9.83;;;8.83;;
10904;SDS011;5505;51.450;9.254;2023-05-07T08:30:07;12.30;;;8.87;;
10904;SDS011;5505;51.450;9.254;2023-05-07T08:32:55;10.27;;;8.60;;
10904;SDS011;5505;51.450;9.254;2023-05-07T08:35:42;9.63;;;8.63;;
10904;SDS011;5505;51.450;9.254;2023-05-07T08:38:30;9.27;;;8.37;;
10904;SDS011;5505;51.450;9.254;2023-05-07T08:41:17;10.30;;;9.23;;
10904;SDS011;5505;51.450;9.254;2023-05-07T08:44:05;9.43;;;8.17;;
10904;SDS011;5505;51.450;9.254;2023-05-07T08:46:57;9.43;;;8.07;;
10904;SDS011;5505;51.450;9.254;2023-05-07T08:49:45;8.87;;;7.97;;
10904;SDS011;5505;51.450;9.254;2023-05-07T08:52:33;9.10;;;8.20;;
10904;SDS011;5505;51.450;9.254;2023-05-07T08:55:22;8.60;;;7.40;;
10904;SDS011;5505;51.450;9.254;2023-05-07T08:58:10;8.57;;;7.73;;
10904;SDS011;5505;51.450;9.254;2023-05-07T09:00:56;9.57;;;8.63;;
10904;SDS011;5505;51.450;9.254;2023-05-07T09:03:44;9.33;;;7.63;;
10904;SDS011;5505;51.450;9.254;2023-05-07T09:06:32;7.93;;;7.13;;
10904;SDS011;5505;51.450;9.254;2023-05-07T09:09:21;9.23;;;6.70;;
10904;SDS011;5505;51.450;9.254;2023-05-07T09:12:09;8.20;;;7.33;;
10904;SDS011;5505;51.450;9.254;2023-05-07T09:14:56;8.57;;;7.20;;
10904;SDS011;5505;51.450;9.254;2023-05-07T09:17:43;9.93;;;7.43;;
10904;SDS011;5505;51.450;9.254;2023-05-07T09:20:30;6.50;;;5.90;;
10904;SDS011;5505;51.450;9.254;2023-05-07T09:23:17;8.93;;;6.53;;
10904;SDS011;5505;51.450;9.254;2023-05-07T09:26:04;9.37;;;6.27;;
10904;SDS011;5505;51.450;9.254;2023-05-07T09:28:57;6.53;;;5.83;;
10904;SDS011;5505;51.450;9.254;2023-05-07T09:31:44;6.10;;;5.57;;
10904;SDS011;5505;51.450;9.254;2023-05-07T09:34:31;5.97;;;5.37;;
10904;SDS011;5505;51.450;9.254;2023-05-07T09:37:18;6.40;;;5.33;;
10904;SDS011;5505;51.450;9.254;2023-05-07T09:40:06;6.93;;;5.33;;
10904;SDS011;5505;51.450;9.254;2023-05-07T09:42:54;6.00;;;5.40;;
10904;SDS011;5505;51.450;9.254;2023-05-07T09:45:42;6.83;;;5.47;;
10904;SDS011;5505;51.450;9.254;2023-05-07T09:48:29;5.63;;;5.13;;
10904;SDS011;5505;51.450;9.254;2023-05-07T09:51:18;7.77;;;5.20;;
10904;SDS011;5505;51.450;9.254;2023-05-07T09:54:10;5.63;;;5.13;;
10904;SDS011;5505;51.450;9.254;2023-05-07T09:56:57;5.93;;;5.30;;
10904;SDS011;5505;51.450;9.254;2023-05-07T09:59:47;5.33;;;4.83;;
10904;SDS011;5505;51.450;9.254;2023-05-07T10:02:39;4.73;;;4.33;;
10904;SDS011;5505;51.450;9.254;2023-05-07T10:05:31;5.00;;;4.50;;
10904;SDS011;5505;51.450;9.254;2023-05-07T10:08:18;5.87;;;5.37;;
10904;SDS011;5505;51.450;9.254;2023-05-07T10:11:05;4.60;;;4.20;;
10904;SDS011;5505;51.450;9.254;2023-05-07T10:13:53;4.33;;;4.00;;
10904;SDS011;5505;51.450;9.254;2023-05-07T10:16:41;4.83;;;4.43;;
10904;SDS011;5505;51.450;9.254;2023-05-07T10:19:29;5.13;;;4.00;;
10904;SDS011;5505;51.450;9.254;2023-05-07T10:22:18;4.40;;;4.00;;
10904;SDS011;5505;51.450;9.254;2023-05-07T10:25:06;4.57;;;4.17;;
10904;SDS011;5505;51.450;9.254;2023-05-07T10:28:01;4.90;;;4.50;;
10904;SDS011;5505;51.450;9.254;2023-05-07T10:30:54;4.37;;;3.97;;
10904;SDS011;5505;51.450;9.254;2023-05-07T10:33:48;4.13;;;3.73;;
10904;SDS011;5505;51.450;9.254;2023-05-07T10:36:40;4.57;;;3.50;;
10904;SDS011;5505;51.450;9.254;2023-05-07T10:39:27;4.03;;;3.73;;
10904;SDS011;5505;51.450;9.254;2023-05-07T10:42:14;4.47;;;3.53;;
10904;SDS011;5505;51.450;9.254;2023-05-07T10:45:11;5.13;;;3.37;;
10904;SDS011;5505;51.450;9.254;2023-05-07T10:48:06;4.73;;;3.43;;
10904;SDS011;5505;51.450;9.254;2023-05-07T10:51:18;4.43;;;3.80;;
10904;SDS011;5505;51.450;9.254;2023-05-07T10:54:20;4.03;;;3.60;;
10904;SDS011;5505;51.450;9.254;2023-05-07T11:03:27;3.43;;;3.13;;
10904;SDS011;5505;51.450;9.254;2023-05-07T11:06:15;3.90;;;3.60;;
10904;SDS011;5505;51.450;9.254;2023-05-07T11:09:02;3.90;;;3.50;;
10904;SDS011;5505;51.450;9.254;2023-05-07T11:11:50;3.77;;;3.40;;
10904;SDS011;5505;51.450;9.254;2023-05-07T11:14:43;3.97;;;3.23;;
10904;SDS011;5505;51.450;9.254;2023-05-07T11:17:30;4.13;;;3.70;;
10904;SDS011;5505;51.450;9.254;2023-05-07T11:20:19;4.10;;;3.70;;
10904;SDS011;5505;51.450;9.254;2023-05-07T11:23:06;4.03;;;3.73;;
10904;SDS011;5505;51.450;9.254;2023-05-07T11:25:57;4.10;;;3.70;;
10904;SDS011;5505;51.450;9.254;2023-05-07T11:28:46;3.97;;;3.67;;
10904;SDS011;5505;51.450;9.254;2023-05-07T11:31:34;3.43;;;3.13;;
10904;SDS011;5505;51.450;9.254;2023-05-07T11:34:21;9.90;;;3.50;;
10904;SDS011;5505;51.450;9.254;2023-05-07T11:37:09;4.03;;;3.67;;
10904;SDS011;5505;51.450;9.254;2023-05-07T11:40:04;4.80;;;4.03;;
10904;SDS011;5505;51.450;9.254;2023-05-07T11:42:52;4.93;;;4.20;;
10904;SDS011;5505;51.450;9.254;2023-05-07T11:45:40;4.10;;;3.70;;
10904;SDS011;5505;51.450;9.254;2023-05-07T11:48:27;4.07;;;3.67;;
10904;SDS011;5505;51.450;9.254;2023-05-07T11:51:18;4.37;;;3.97;;
10904;SDS011;5505;51.450;9.254;2023-05-07T11:54:05;4.60;;;4.20;;
10904;SDS011;5505;51.450;9.254;2023-05-07T11:56:53;4.90;;;4.10;;
10904;SDS011;5505;51.450;9.254;2023-05-07T11:59:44;4.30;;;3.93;;
10904;SDS011;5505;51.450;9.254;2023-05-07T12:02:33;5.90;;;4.20;;
10904;SDS011;5505;51.450;9.254;2023-05-07T12:05:20;6.17;;;4.37;;
10904;SDS011;5505;51.450;9.254;2023-05-07T12:08:07;5.10;;;4.67;;
10904;SDS011;5505;51.450;9.254;2023-05-07T12:10:54;4.87;;;4.47;;
10904;SDS011;5505;51.450;9.254;2023-05-07T12:13:41;4.83;;;3.70;;
10904;SDS011;5505;51.450;9.254;2023-05-07T12:16:28;5.07;;;4.50;;
10904;SDS011;5505;51.450;9.254;2023-05-07T12:19:16;6.50;;;4.77;;
10904;SDS011;5505;51.450;9.254;2023-05-07T12:22:03;5.57;;;4.73;;
10904;SDS011;5505;51.450;9.254;2023-05-07T12:24:56;5.10;;;4.60;;
10904;SDS011;5505;51.450;9.254;2023-05-07T12:27:43;5.27;;;4.77;;
10904;SDS011;5505;51.450;9.254;2023-05-07T12:30:37;5.33;;;4.80;;
10904;SDS011;5505;51.450;9.254;2023-05-07T12:33:25;5.80;;;5.30;;
10904;SDS011;5505;51.450;9.254;2023-05-07T12:36:14;5.63;;;5.03;;
10904;SDS011;5505;51.450;9.254;2023-05-07T12:39:01;5.87;;;5.37;;
10904;SDS011;5505;51.450;9.254;2023-05-07T12:41:53;6.73;;;6.13;;
10904;SDS011;5505;51.450;9.254;2023-05-07T12:44:41;8.93;;;5.60;;
10904;SDS011;5505;51.450;9.254;2023-05-07T12:47:29;8.17;;;5.50;;
10904;SDS011;5505;51.450;9.254;2023-05-07T12:50:17;6.30;;;5.70;;
10904;SDS011;5505;51.450;9.254;2023-05-07T12:53:07;7.23;;;6.57;;
10904;SDS011;5505;51.450;9.254;2023-05-07T12:55:56;6.10;;;5.50;;
10904;SDS011;5505;51.450;9.254;2023-05-07T12:58:44;6.83;;;6.13;;
10904;SDS011;5505;51.450;9.254;2023-05-07T13:01:31;6.70;;;6.03;;
10904;SDS011;5505;51.450;9.254;2023-05-07T13:04:20;6.63;;;6.03;;
10904;SDS011;5505;51.450;9.254;2023-05-07T13:07:10;7.27;;;6.50;;
10904;SDS011;5505;51.450;9.254;2023-05-07T13:09:58;6.47;;;5.87;;
10904;SDS011;5505;51.450;9.254;2023-05-07T13:12:44;6.97;;;6.37;;
10904;SDS011;5505;51.450;9.254;2023-05-07T13:15:31;7.23;;;6.57;;
10904;SDS011;5505;51.450;9.254;2023-05-07T13:18:18;7.80;;;7.00;;
10904;SDS011;5505;51.450;9.254;2023-05-07T13:21:05;6.83;;;6.23;;
10904;SDS011;5505;51.450;9.254;2023-05-07T13:23:52;7.57;;;6.20;;
10904;SDS011;5505;51.450;9.254;2023-05-07T13:26:40;7.40;;;6.70;;
10904;SDS011;5505;51.450;9.254;2023-05-07T13:29:26;6.70;;;6.10;;
10904;SDS011;5505;51.450;9.254;2023-05-07T13:32:15;6.50;;;5.90;;
10904;SDS011;5505;51.450;9.254;2023-05-07T13:35:02;7.03;;;6.33;;
10904;SDS011;5505;51.450;9.254;2023-05-07T13:37:49;8.57;;;6.70;;
10904;SDS011;5505;51.450;9.254;2023-05-07T13:40:39;8.90;;;6.43;;
10904;SDS011;5505;51.450;9.254;2023-05-07T13:43:27;8.63;;;6.87;;
10904;SDS011;5505;51.450;9.254;2023-05-07T13:46:13;8.97;;;6.97;;
10904;SDS011;5505;51.450;9.254;2023-05-07T13:49:01;7.47;;;6.77;;
10904;SDS011;5505;51.450;9.254;2023-05-07T13:51:48;6.70;;;6.10;;
10904;SDS011;5505;51.450;9.254;2023-05-07T13:54:34;7.53;;;6.83;;
10904;SDS011;5505;51.450;9.254;2023-05-07T13:57:21;7.30;;;6.60;;
10904;SDS011;5505;51.450;9.254;2023-05-07T14:00:10;6.90;;;5.90;;
10904;SDS011;5505;51.450;9.254;2023-05-07T14:02:57;6.33;;;5.83;;
10904;SDS011;5505;51.450;9.254;2023-05-07T14:05:44;6.43;;;5.50;;
10904;SDS011;5505;51.450;9.254;2023-05-07T14:08:31;6.63;;;6.00;;
10904;SDS011;5505;51.450;9.254;2023-05-07T14:11:18;7.30;;;6.67;;
10904;SDS011;5505;51.450;9.254;2023-05-07T14:14:05;5.87;;;5.27;;
10904;SDS011;5505;51.450;9.254;2023-05-07T14:16:53;6.53;;;5.90;;
10904;SDS011;5505;51.450;9.254;2023-05-07T14:19:40;6.50;;;5.90;;
10904;SDS011;5505;51.450;9.254;2023-05-07T14:22:27;8.23;;;7.43;;
10904;SDS011;5505;51.450;9.254;2023-05-07T14:25:14;7.37;;;6.60;;
10904;SDS011;5505;51.450;9.254;2023-05-07T14:28:00;7.17;;;6.47;;
10904;SDS011;5505;51.450;9.254;2023-05-07T14:30:47;8.10;;;7.30;;
10904;SDS011;5505;51.450;9.254;2023-05-07T14:33:35;6.97;;;6.27;;
10904;SDS011;5505;51.450;9.254;2023-05-07T14:36:22;7.00;;;6.40;;
10904;SDS011;5505;51.450;9.254;2023-05-07T14:39:13;7.03;;;6.43;;
10904;SDS011;5505;51.450;9.254;2023-05-07T14:41:59;7.60;;;6.83;;
10904;SDS011;5505;51.450;9.254;2023-05-07T14:44:46;7.10;;;6.43;;
10904;SDS011;5505;51.450;9.254;2023-05-07T14:47:33;6.00;;;5.43;;
10904;SDS011;5505;51.450;9.254;2023-05-07T14:50:21;7.13;;;6.53;;
10904;SDS011;5505;51.450;9.254;2023-05-07T14:53:08;6.93;;;6.33;;
10904;SDS011;5505;51.450;9.254;2023-05-07T14:55:55;6.80;;;6.20;;
10904;SDS011;5505;51.450;9.254;2023-05-07T14:58:41;8.27;;;7.57;;
10904;SDS011;5505;51.450;9.254;2023-05-07T15:01:28;7.90;;;7.17;;
10904;SDS011;5505;51.450;9.254;2023-05-07T15:04:15;8.23;;;6.90;;
10904;SDS011;5505;51.450;9.254;2023-05-07T15:07:04;7.70;;;6.90;;
10904;SDS011;5505;51.450;9.254;2023-05-07T15:09:51;7.03;;;6.40;;
10904;SDS011;5505;51.450;9.254;2023-05-07T15:12:37;7.23;;;6.53;;
10904;SDS011;5505;51.450;9.254;2023-05-07T15:15:24;7.10;;;6.40;;
10904;SDS011;5505;51.450;9.254;2023-05-07T15:18:11;8.07;;;6.60;;
10904;SDS011;5505;51.450;9.254;2023-05-07T15:20:58;8.53;;;7.53;;
10904;SDS011;5505;51.450;9.254;2023-05-07T15:23:46;7.33;;;6.63;;
10904;SDS011;5505;51.450;9.254;2023-05-07T15:26:33;7.77;;;6.97;;
10904;SDS011;5505;51.450;9.254;2023-05-07T15:29:20;7.40;;;6.70;;
10904;SDS011;5505;51.450;9.254;2023-05-07T15:32:07;7.90;;;7.20;;
10904;SDS011;5505;51.450;9.254;2023-05-07T15:34:53;7.07;;;6.37;;
10904;SDS011;5505;51.450;9.254;2023-05-07T15:37:40;7.67;;;6.40;;
10904;SDS011;5505;51.450;9.254;2023-05-07T15:40:28;7.17;;;6.53;;
10904;SDS011;5505;51.450;9.254;2023-05-07T15:43:16;7.87;;;7.17;;
10904;SDS011;5505;51.450;9.254;2023-05-07T15:46:03;9.30;;;6.87;;
10904;SDS011;5505;51.450;9.254;2023-05-07T15:48:50;8.30;;;7.40;;
10904;SDS011;5505;51.450;9.254;2023-05-07T15:51:37;8.03;;;7.33;;
10904;SDS011;5505;51.450;9.254;2023-05-07T15:54:24;8.33;;;7.53;;
10904;SDS011;5505;51.450;9.254;2023-05-07T15:57:12;8.00;;;7.23;;
10904;SDS011;5505;51.450;9.254;2023-05-07T15:59:59;8.83;;;7.93;;
10904;SDS011;5505;51.450;9.254;2023-05-07T16:02:47;8.00;;;7.30;;
10904;SDS011;5505;51.450;9.254;2023-05-07T16:05:34;9.27;;;8.00;;
10904;SDS011;5505;51.450;9.254;2023-05-07T16:08:21;9.07;;;7.73;;
10904;SDS011;5505;51.450;9.254;2023-05-07T16:11:08;7.87;;;7.13;;
10904;SDS011;5505;51.450;9.254;2023-05-07T16:13:56;7.40;;;6.80;;
10904;SDS011;5505;51.450;9.254;2023-05-07T16:16:44;7.43;;;6.73;;
10904;SDS011;5505;51.450;9.254;2023-05-07T16:19:31;7.47;;;6.77;;
10904;SDS011;5505;51.450;9.254;2023-05-07T16:22:18;7.00;;;6.40;;
10904;SDS011;5505;51.450;9.254;2023-05-07T16:25:06;7.63;;;7.00;;
10904;SDS011;5505;51.450;9.254;2023-05-07T16:27:54;7.80;;;7.00;;
10904;SDS011;5505;51.450;9.254;2023-05-07T16:30:42;8.27;;;6.97;;
10904;SDS011;5505;51.450;9.254;2023-05-07T16:33:29;7.93;;;7.23;;
10904;SDS011;5505;51.450;9.254;2023-05-07T16:36:15;6.90;;;6.30;;
10904;SDS011;5505;51.450;9.254;2023-05-07T16:39:03;8.37;;;7.57;;
10904;SDS011;5505;51.450;9.254;2023-05-07T16:41:50;8.23;;;7.47;;
10904;SDS011;5505;51.450;9.254;2023-05-07T16:44:37;7.57;;;6.93;;
10904;SDS011;5505;51.450;9.254;2023-05-07T16:47:25;7.77;;;7.07;;
10904;SDS011;5505;51.450;9.254;2023-05-07T16:50:13;8.03;;;7.23;;
10904;SDS011;5505;51.450;9.254;2023-05-07T16:53:00;7.80;;;7.20;;
10904;SDS011;5505;51.450;9.254;2023-05-07T16:55:47;8.10;;;7.37;;
10904;SDS011;5505;51.450;9.254;2023-05-07T16:58:34;8.30;;;7.47;;
10904;SDS011;5505;51.450;9.254;2023-05-07T17:01:20;8.23;;;7.53;;